sensor_id;sensor_type;location;lat;lon;timestamp;P1;durP1;ratioP1;P2;durP2;ratioP2
24715;SDS011;12822;50.124;8.678;2022-12-20T00:02:05;79.05;;;37.92;;
24715;SDS011;12822;50.124;8.678;2022-12-20T00:04:31;77.75;;;38.33;;
24715;SDS011;12822;50.124;8.678;2022-12-20T00:06:57;79.88;;;38.75;;
24715;SDS011;12822;50.124;8.678;2022-12-20T00:09:23;78.35;;;38.70;;
24715;SDS011;12822;50.124;8.678;2022-12-20T00:11:49;79.38;;;36.63;;
24715;SDS011;12822;50.124;8.678;2022-12-20T00:14:16;84.40;;;40.30;;
24715;SDS011;12822;50.124;8.678;2022-12-20T00:16:43;80.18;;;39.47;;
24715;SDS011;12822;50.124;8.678;2022-12-20T00:19:09;80.07;;;37.67;;
24715;SDS011;12822;50.124;8.678;2022-12-20T00:21:36;74.68;;;37.80;;
24715;SDS011;12822;50.124;8.678;2022-12-20T00:24:02;81.05;;;38.95;;
24715;SDS011;12822;50.124;8.678;2022-12-20T00:26:29;80.47;;;37.70;;
24715;SDS011;12822;50.124;8.678;2022-12-20T00:28:56;77.68;;;37.35;;
24715;SDS011;12822;50.124;8.678;2022-12-20T00:31:23;76.75;;;38.10;;
24715;SDS011;12822;50.124;8.678;2022-12-20T00:33:50;77.55;;;37.42;;
24715;SDS011;12822;50.124;8.678;2022-12-20T00:36:16;81.75;;;38.88;;
24715;SDS011;12822;50.124;8.678;2022-12-20T00:38:43;84.10;;;39.33;;
24715;SDS011;12822;50.124;8.678;2022-12-20T00:41:10;86.65;;;39.75;;
24715;SDS011;12822;50.124;8.678;2022-12-20T00:43:37;84.35;;;38.67;;
24715;SDS011;12822;50.124;8.678;2022-12-20T00:46:03;73.07;;;39.10;;
24715;SDS011;12822;50.124;8.678;2022-12-20T00:48:30;80.90;;;39.58;;
24715;SDS011;12822;50.124;8.678;2022-12-20T00:50:57;76.40;;;37.55;;
24715;SDS011;12822;50.124;8.678;2022-12-20T00:53:24;76.30;;;38.03;;
24715;SDS011;12822;50.124;8.678;2022-12-20T00:55:50;71.75;;;37.08;;
24715;SDS011;12822;50.124;8.678;2022-12-20T00:58:16;76.20;;;36.42;;
24715;SDS011;12822;50.124;8.678;2022-12-20T01:00:42;71.28;;;35.55;;
24715;SDS011;12822;50.124;8.678;2022-12-20T01:03:08;74.72;;;35.97;;
24715;SDS011;12822;50.124;8.678;2022-12-20T01:05:34;71.97;;;34.40;;
24715;SDS011;12822;50.124;8.678;2022-12-20T01:08:00;70.00;;;35.22;;
24715;SDS011;12822;50.124;8.678;2022-12-20T01:10:26;71.57;;;34.85;;
24715;SDS011;12822;50.124;8.678;2022-12-20T01:12:52;67.15;;;34.65;;
24715;SDS011;12822;50.124;8.678;2022-12-20T01:15:18;66.88;;;35.58;;
24715;SDS011;12822;50.124;8.678;2022-12-20T01:17:45;70.22;;;34.03;;
24715;SDS011;12822;50.124;8.678;2022-12-20T01:20:11;64.40;;;33.92;;
24715;SDS011;12822;50.124;8.678;2022-12-20T01:22:37;69.68;;;35.20;;
24715;SDS011;12822;50.124;8.678;2022-12-20T01:25:03;68.95;;;34.88;;
24715;SDS011;12822;50.124;8.678;2022-12-20T01:27:30;69.97;;;33.97;;
24715;SDS011;12822;50.124;8.678;2022-12-20T01:29:56;70.82;;;35.10;;
24715;SDS011;12822;50.124;8.678;2022-12-20T01:32:22;71.32;;;34.00;;
24715;SDS011;12822;50.124;8.678;2022-12-20T01:34:48;66.95;;;33.35;;
24715;SDS011;12822;50.124;8.678;2022-12-20T01:37:14;65.45;;;32.75;;
24715;SDS011;12822;50.124;8.678;2022-12-20T01:39:39;70.55;;;33.88;;
24715;SDS011;12822;50.124;8.678;2022-12-20T01:42:05;71.40;;;34.30;;
24715;SDS011;12822;50.124;8.678;2022-12-20T01:46:57;70.57;;;34.53;;
24715;SDS011;12822;50.124;8.678;2022-12-20T01:49:25;63.67;;;32.22;;
24715;SDS011;12822;50.124;8.678;2022-12-20T01:51:59;73.78;;;35.58;;
24715;SDS011;12822;50.124;8.678;2022-12-20T01:54:30;70.82;;;33.58;;
24715;SDS011;12822;50.124;8.678;2022-12-20T01:56:58;66.78;;;34.50;;
24715;SDS011;12822;50.124;8.678;2022-12-20T01:59:25;67.35;;;33.38;;
24715;SDS011;12822;50.124;8.678;2022-12-20T02:01:52;70.53;;;33.95;;
24715;SDS011;12822;50.124;8.678;2022-12-20T02:04:18;69.30;;;33.35;;
24715;SDS011;12822;50.124;8.678;2022-12-20T02:06:43;68.00;;;33.75;;
24715;SDS011;12822;50.124;8.678;2022-12-20T02:09:09;66.25;;;33.75;;
24715;SDS011;12822;50.124;8.678;2022-12-20T02:11:48;64.30;;;32.70;;
24715;SDS011;12822;50.124;8.678;2022-12-20T02:21:56;67.75;;;34.28;;
24715;SDS011;12822;50.124;8.678;2022-12-20T02:29:36;72.05;;;34.63;;
24715;SDS011;12822;50.124;8.678;2022-12-20T02:34:38;67.80;;;33.85;;
24715;SDS011;12822;50.124;8.678;2022-12-20T02:37:04;66.15;;;33.67;;
24715;SDS011;12822;50.124;8.678;2022-12-20T02:39:30;64.75;;;33.63;;
24715;SDS011;12822;50.124;8.678;2022-12-20T02:42:14;66.32;;;33.25;;
24715;SDS011;12822;50.124;8.678;2022-12-20T02:44:47;66.93;;;34.22;;
24715;SDS011;12822;50.124;8.678;2022-12-20T02:47:33;65.65;;;34.15;;
24715;SDS011;12822;50.124;8.678;2022-12-20T02:50:00;66.65;;;35.08;;
24715;SDS011;12822;50.124;8.678;2022-12-20T02:52:27;67.60;;;34.33;;
24715;SDS011;12822;50.124;8.678;2022-12-20T02:54:55;76.10;;;34.80;;
24715;SDS011;12822;50.124;8.678;2022-12-20T02:57:28;63.25;;;33.03;;
24715;SDS011;12822;50.124;8.678;2022-12-20T03:02:22;73.72;;;33.47;;
24715;SDS011;12822;50.124;8.678;2022-12-20T03:04:49;72.15;;;34.70;;
24715;SDS011;12822;50.124;8.678;2022-12-20T03:07:16;58.80;;;31.02;;
24715;SDS011;12822;50.124;8.678;2022-12-20T03:09:43;68.53;;;33.58;;
24715;SDS011;12822;50.124;8.678;2022-12-20T03:12:10;62.63;;;32.25;;
24715;SDS011;12822;50.124;8.678;2022-12-20T03:14:36;63.70;;;31.45;;
24715;SDS011;12822;50.124;8.678;2022-12-20T03:17:03;59.17;;;30.38;;
24715;SDS011;12822;50.124;8.678;2022-12-20T03:19:29;69.28;;;33.58;;
24715;SDS011;12822;50.124;8.678;2022-12-20T03:21:55;66.65;;;30.50;;
24715;SDS011;12822;50.124;8.678;2022-12-20T03:24:21;64.05;;;32.45;;
24715;SDS011;12822;50.124;8.678;2022-12-20T03:26:47;67.05;;;31.33;;
24715;SDS011;12822;50.124;8.678;2022-12-20T03:29:13;57.67;;;30.67;;
24715;SDS011;12822;50.124;8.678;2022-12-20T03:31:39;63.30;;;32.30;;
24715;SDS011;12822;50.124;8.678;2022-12-20T03:34:05;61.15;;;32.53;;
24715;SDS011;12822;50.124;8.678;2022-12-20T03:36:31;63.30;;;30.38;;
24715;SDS011;12822;50.124;8.678;2022-12-20T03:38:57;60.13;;;30.25;;
24715;SDS011;12822;50.124;8.678;2022-12-20T03:41:23;62.88;;;30.83;;
24715;SDS011;12822;50.124;8.678;2022-12-20T03:43:49;62.83;;;31.25;;
24715;SDS011;12822;50.124;8.678;2022-12-20T03:46:15;56.10;;;30.17;;
24715;SDS011;12822;50.124;8.678;2022-12-20T03:48:41;63.13;;;32.50;;
24715;SDS011;12822;50.124;8.678;2022-12-20T03:51:08;59.67;;;29.85;;
24715;SDS011;12822;50.124;8.678;2022-12-20T03:53:34;64.22;;;32.83;;
24715;SDS011;12822;50.124;8.678;2022-12-20T03:56:00;65.20;;;32.67;;
24715;SDS011;12822;50.124;8.678;2022-12-20T03:58:26;61.25;;;30.77;;
24715;SDS011;12822;50.124;8.678;2022-12-20T04:00:52;63.67;;;31.45;;
24715;SDS011;12822;50.124;8.678;2022-12-20T04:03:18;71.47;;;33.50;;
24715;SDS011;12822;50.124;8.678;2022-12-20T04:05:44;64.60;;;32.60;;
24715;SDS011;12822;50.124;8.678;2022-12-20T04:08:10;59.80;;;29.88;;
24715;SDS011;12822;50.124;8.678;2022-12-20T04:10:36;62.38;;;31.38;;
24715;SDS011;12822;50.124;8.678;2022-12-20T04:13:22;62.30;;;30.05;;
24715;SDS011;12822;50.124;8.678;2022-12-20T04:15:48;64.10;;;31.50;;
24715;SDS011;12822;50.124;8.678;2022-12-20T04:18:14;60.78;;;31.67;;
24715;SDS011;12822;50.124;8.678;2022-12-20T04:20:40;60.47;;;31.33;;
24715;SDS011;12822;50.124;8.678;2022-12-20T04:23:06;59.63;;;29.20;;
24715;SDS011;12822;50.124;8.678;2022-12-20T04:25:32;66.47;;;30.13;;
24715;SDS011;12822;50.124;8.678;2022-12-20T04:27:58;58.33;;;29.80;;
24715;SDS011;12822;50.124;8.678;2022-12-20T04:30:24;62.92;;;31.75;;
24715;SDS011;12822;50.124;8.678;2022-12-20T04:32:50;59.15;;;30.35;;
24715;SDS011;12822;50.124;8.678;2022-12-20T04:35:18;70.65;;;31.42;;
24715;SDS011;12822;50.124;8.678;2022-12-20T04:37:44;65.35;;;32.42;;
24715;SDS011;12822;50.124;8.678;2022-12-20T04:40:11;70.07;;;33.60;;
24715;SDS011;12822;50.124;8.678;2022-12-20T04:42:37;67.20;;;31.67;;
24715;SDS011;12822;50.124;8.678;2022-12-20T04:45:03;59.33;;;31.40;;
24715;SDS011;12822;50.124;8.678;2022-12-20T04:47:30;63.47;;;31.95;;
24715;SDS011;12822;50.124;8.678;2022-12-20T04:49:56;63.45;;;31.95;;
24715;SDS011;12822;50.124;8.678;2022-12-20T04:52:22;60.85;;;31.60;;
24715;SDS011;12822;50.124;8.678;2022-12-20T04:55:06;60.53;;;30.90;;
24715;SDS011;12822;50.124;8.678;2022-12-20T04:57:32;57.83;;;31.52;;
24715;SDS011;12822;50.124;8.678;2022-12-20T04:59:58;59.35;;;29.75;;
24715;SDS011;12822;50.124;8.678;2022-12-20T05:02:24;60.33;;;29.98;;
24715;SDS011;12822;50.124;8.678;2022-12-20T05:04:50;58.70;;;30.63;;
24715;SDS011;12822;50.124;8.678;2022-12-20T05:07:16;63.97;;;32.22;;
24715;SDS011;12822;50.124;8.678;2022-12-20T05:09:42;58.10;;;30.70;;
24715;SDS011;12822;50.124;8.678;2022-12-20T05:12:08;56.53;;;29.80;;
24715;SDS011;12822;50.124;8.678;2022-12-20T05:14:34;58.60;;;30.30;;
24715;SDS011;12822;50.124;8.678;2022-12-20T05:17:00;60.10;;;31.10;;
24715;SDS011;12822;50.124;8.678;2022-12-20T05:19:26;57.83;;;29.70;;
24715;SDS011;12822;50.124;8.678;2022-12-20T05:21:52;60.75;;;31.02;;
24715;SDS011;12822;50.124;8.678;2022-12-20T05:24:37;65.80;;;31.33;;
24715;SDS011;12822;50.124;8.678;2022-12-20T05:27:21;61.97;;;31.05;;
24715;SDS011;12822;50.124;8.678;2022-12-20T05:29:47;57.40;;;30.63;;
24715;SDS011;12822;50.124;8.678;2022-12-20T05:32:13;62.05;;;31.98;;
24715;SDS011;12822;50.124;8.678;2022-12-20T05:34:40;57.65;;;30.42;;
24715;SDS011;12822;50.124;8.678;2022-12-20T05:37:06;59.13;;;30.00;;
24715;SDS011;12822;50.124;8.678;2022-12-20T05:39:32;61.72;;;30.40;;
24715;SDS011;12822;50.124;8.678;2022-12-20T05:41:58;62.03;;;29.88;;
24715;SDS011;12822;50.124;8.678;2022-12-20T05:44:24;61.47;;;31.58;;
24715;SDS011;12822;50.124;8.678;2022-12-20T05:46:50;65.82;;;31.65;;
24715;SDS011;12822;50.124;8.678;2022-12-20T05:49:16;63.20;;;29.10;;
24715;SDS011;12822;50.124;8.678;2022-12-20T05:51:42;63.45;;;32.85;;
24715;SDS011;12822;50.124;8.678;2022-12-20T05:54:08;60.75;;;30.30;;
24715;SDS011;12822;50.124;8.678;2022-12-20T05:56:35;62.72;;;31.40;;
24715;SDS011;12822;50.124;8.678;2022-12-20T05:59:01;58.22;;;29.38;;
24715;SDS011;12822;50.124;8.678;2022-12-20T06:01:27;61.40;;;31.65;;
24715;SDS011;12822;50.124;8.678;2022-12-20T06:03:53;61.05;;;29.05;;
24715;SDS011;12822;50.124;8.678;2022-12-20T06:06:19;60.38;;;31.85;;
24715;SDS011;12822;50.124;8.678;2022-12-20T06:08:45;65.07;;;33.60;;
24715;SDS011;12822;50.124;8.678;2022-12-20T06:11:11;63.20;;;32.33;;
24715;SDS011;12822;50.124;8.678;2022-12-20T06:13:39;58.03;;;31.05;;
24715;SDS011;12822;50.124;8.678;2022-12-20T06:16:05;59.17;;;32.50;;
24715;SDS011;12822;50.124;8.678;2022-12-20T06:18:31;55.38;;;30.75;;
24715;SDS011;12822;50.124;8.678;2022-12-20T06:20:57;63.45;;;31.05;;
24715;SDS011;12822;50.124;8.678;2022-12-20T06:23:23;63.20;;;32.60;;
24715;SDS011;12822;50.124;8.678;2022-12-20T06:25:49;60.30;;;31.25;;
24715;SDS011;12822;50.124;8.678;2022-12-20T06:28:15;60.17;;;31.75;;
24715;SDS011;12822;50.124;8.678;2022-12-20T06:30:50;63.10;;;31.33;;
24715;SDS011;12822;50.124;8.678;2022-12-20T06:33:17;64.57;;;32.33;;
24715;SDS011;12822;50.124;8.678;2022-12-20T06:35:42;60.42;;;31.42;;
24715;SDS011;12822;50.124;8.678;2022-12-20T06:38:08;60.47;;;31.23;;
24715;SDS011;12822;50.124;8.678;2022-12-20T06:40:34;59.30;;;30.23;;
24715;SDS011;12822;50.124;8.678;2022-12-20T06:43:00;64.70;;;31.85;;
24715;SDS011;12822;50.124;8.678;2022-12-20T06:45:26;58.20;;;32.08;;
24715;SDS011;12822;50.124;8.678;2022-12-20T06:47:52;62.13;;;31.77;;
24715;SDS011;12822;50.124;8.678;2022-12-20T06:50:18;56.92;;;31.95;;
24715;SDS011;12822;50.124;8.678;2022-12-20T06:52:44;62.58;;;32.22;;
24715;SDS011;12822;50.124;8.678;2022-12-20T06:55:10;65.80;;;32.65;;
24715;SDS011;12822;50.124;8.678;2022-12-20T06:57:36;57.97;;;30.17;;
24715;SDS011;12822;50.124;8.678;2022-12-20T07:00:03;62.72;;;31.77;;
24715;SDS011;12822;50.124;8.678;2022-12-20T07:02:29;57.75;;;30.35;;
24715;SDS011;12822;50.124;8.678;2022-12-20T07:04:55;60.40;;;29.83;;
24715;SDS011;12822;50.124;8.678;2022-12-20T07:07:21;58.40;;;32.08;;
24715;SDS011;12822;50.124;8.678;2022-12-20T07:09:46;58.38;;;31.55;;
24715;SDS011;12822;50.124;8.678;2022-12-20T07:12:12;59.40;;;30.77;;
24715;SDS011;12822;50.124;8.678;2022-12-20T07:14:38;63.55;;;32.22;;
24715;SDS011;12822;50.124;8.678;2022-12-20T07:17:05;56.17;;;29.77;;
24715;SDS011;12822;50.124;8.678;2022-12-20T07:19:31;57.90;;;29.52;;
24715;SDS011;12822;50.124;8.678;2022-12-20T07:21:57;57.40;;;30.15;;
24715;SDS011;12822;50.124;8.678;2022-12-20T07:24:23;62.28;;;31.33;;
24715;SDS011;12822;50.124;8.678;2022-12-20T07:26:49;57.50;;;30.15;;
24715;SDS011;12822;50.124;8.678;2022-12-20T07:29:15;56.63;;;31.23;;
24715;SDS011;12822;50.124;8.678;2022-12-20T07:31:41;64.05;;;31.75;;
24715;SDS011;12822;50.124;8.678;2022-12-20T07:34:07;58.55;;;29.73;;
24715;SDS011;12822;50.124;8.678;2022-12-20T07:36:33;54.55;;;29.00;;
24715;SDS011;12822;50.124;8.678;2022-12-20T07:38:59;54.90;;;30.33;;
24715;SDS011;12822;50.124;8.678;2022-12-20T07:41:25;59.47;;;28.95;;
24715;SDS011;12822;50.124;8.678;2022-12-20T07:43:51;55.55;;;27.85;;
24715;SDS011;12822;50.124;8.678;2022-12-20T07:46:17;55.67;;;29.33;;
24715;SDS011;12822;50.124;8.678;2022-12-20T07:48:43;60.20;;;30.85;;
24715;SDS011;12822;50.124;8.678;2022-12-20T07:51:17;55.65;;;28.30;;
24715;SDS011;12822;50.124;8.678;2022-12-20T07:53:45;57.03;;;27.67;;
24715;SDS011;12822;50.124;8.678;2022-12-20T07:56:11;53.13;;;28.30;;
24715;SDS011;12822;50.124;8.678;2022-12-20T07:58:38;55.92;;;28.98;;
24715;SDS011;12822;50.124;8.678;2022-12-20T08:01:05;49.95;;;26.50;;
24715;SDS011;12822;50.124;8.678;2022-12-20T08:03:35;54.67;;;27.50;;
24715;SDS011;12822;50.124;8.678;2022-12-20T08:06:02;54.70;;;28.40;;
24715;SDS011;12822;50.124;8.678;2022-12-20T08:08:31;54.17;;;27.50;;
24715;SDS011;12822;50.124;8.678;2022-12-20T08:11:00;55.97;;;28.95;;
24715;SDS011;12822;50.124;8.678;2022-12-20T08:13:27;50.92;;;27.65;;
24715;SDS011;12822;50.124;8.678;2022-12-20T08:15:53;48.33;;;27.70;;
24715;SDS011;12822;50.124;8.678;2022-12-20T08:18:19;53.47;;;28.25;;
24715;SDS011;12822;50.124;8.678;2022-12-20T08:20:45;48.47;;;26.65;;
24715;SDS011;12822;50.124;8.678;2022-12-20T08:23:11;50.60;;;27.88;;
24715;SDS011;12822;50.124;8.678;2022-12-20T08:25:37;59.47;;;26.75;;
24715;SDS011;12822;50.124;8.678;2022-12-20T08:28:03;49.42;;;26.27;;
24715;SDS011;12822;50.124;8.678;2022-12-20T08:30:29;50.63;;;26.65;;
24715;SDS011;12822;50.124;8.678;2022-12-20T08:32:55;49.97;;;26.58;;
24715;SDS011;12822;50.124;8.678;2022-12-20T08:35:22;56.33;;;26.27;;
24715;SDS011;12822;50.124;8.678;2022-12-20T08:37:51;47.97;;;25.65;;
24715;SDS011;12822;50.124;8.678;2022-12-20T08:40:17;48.90;;;25.15;;
24715;SDS011;12822;50.124;8.678;2022-12-20T08:42:44;50.97;;;25.17;;
24715;SDS011;12822;50.124;8.678;2022-12-20T08:45:10;49.38;;;24.92;;
24715;SDS011;12822;50.124;8.678;2022-12-20T08:47:36;49.58;;;23.92;;
24715;SDS011;12822;50.124;8.678;2022-12-20T08:50:03;47.40;;;23.33;;
24715;SDS011;12822;50.124;8.678;2022-12-20T08:52:29;49.42;;;25.05;;
24715;SDS011;12822;50.124;8.678;2022-12-20T08:54:55;43.83;;;24.90;;
24715;SDS011;12822;50.124;8.678;2022-12-20T08:57:21;51.47;;;24.85;;
24715;SDS011;12822;50.124;8.678;2022-12-20T08:59:47;44.33;;;25.67;;
24715;SDS011;12822;50.124;8.678;2022-12-20T09:02:16;46.50;;;24.73;;
24715;SDS011;12822;50.124;8.678;2022-12-20T09:04:43;53.00;;;27.73;;
24715;SDS011;12822;50.124;8.678;2022-12-20T09:07:09;50.60;;;26.92;;
24715;SDS011;12822;50.124;8.678;2022-12-20T09:09:35;44.92;;;25.48;;
24715;SDS011;12822;50.124;8.678;2022-12-20T09:12:01;53.13;;;27.27;;
24715;SDS011;12822;50.124;8.678;2022-12-20T09:14:27;50.33;;;26.30;;
24715;SDS011;12822;50.124;8.678;2022-12-20T09:16:54;46.92;;;24.63;;
24715;SDS011;12822;50.124;8.678;2022-12-20T09:19:20;55.08;;;27.50;;
24715;SDS011;12822;50.124;8.678;2022-12-20T09:21:46;51.25;;;28.20;;
24715;SDS011;12822;50.124;8.678;2022-12-20T09:24:12;50.38;;;26.13;;
24715;SDS011;12822;50.124;8.678;2022-12-20T09:26:38;45.90;;;25.85;;
24715;SDS011;12822;50.124;8.678;2022-12-20T09:29:05;45.05;;;26.05;;
24715;SDS011;12822;50.124;8.678;2022-12-20T09:31:31;51.85;;;26.75;;
24715;SDS011;12822;50.124;8.678;2022-12-20T09:33:57;49.35;;;25.98;;
24715;SDS011;12822;50.124;8.678;2022-12-20T09:36:25;43.95;;;24.42;;
24715;SDS011;12822;50.124;8.678;2022-12-20T09:38:52;45.05;;;23.88;;
24715;SDS011;12822;50.124;8.678;2022-12-20T09:43:48;44.40;;;23.55;;
24715;SDS011;12822;50.124;8.678;2022-12-20T09:46:14;47.08;;;25.30;;
24715;SDS011;12822;50.124;8.678;2022-12-20T09:48:40;46.17;;;24.83;;
24715;SDS011;12822;50.124;8.678;2022-12-20T10:01:19;43.85;;;24.23;;
24715;SDS011;12822;50.124;8.678;2022-12-20T10:03:49;41.92;;;23.38;;
24715;SDS011;12822;50.124;8.678;2022-12-20T10:09:04;53.05;;;26.35;;
24715;SDS011;12822;50.124;8.678;2022-12-20T10:11:35;49.95;;;26.38;;
24715;SDS011;12822;50.124;8.678;2022-12-20T10:16:43;44.72;;;24.52;;
24715;SDS011;12822;50.124;8.678;2022-12-20T10:19:23;49.20;;;25.83;;
24715;SDS011;12822;50.124;8.678;2022-12-20T10:21:56;47.25;;;26.05;;
24715;SDS011;12822;50.124;8.678;2022-12-20T10:24:26;48.13;;;25.20;;
24715;SDS011;12822;50.124;8.678;2022-12-20T10:26:54;47.13;;;24.17;;
24715;SDS011;12822;50.124;8.678;2022-12-20T10:29:23;41.58;;;23.75;;
24715;SDS011;12822;50.124;8.678;2022-12-20T10:31:53;42.92;;;23.48;;
24715;SDS011;12822;50.124;8.678;2022-12-20T10:34:20;47.42;;;24.30;;
24715;SDS011;12822;50.124;8.678;2022-12-20T10:36:46;44.85;;;23.83;;
24715;SDS011;12822;50.124;8.678;2022-12-20T10:39:14;42.50;;;24.10;;
24715;SDS011;12822;50.124;8.678;2022-12-20T10:44:24;46.15;;;25.67;;
24715;SDS011;12822;50.124;8.678;2022-12-20T10:46:54;42.63;;;23.40;;
24715;SDS011;12822;50.124;8.678;2022-12-20T10:51:50;47.72;;;25.58;;
24715;SDS011;12822;50.124;8.678;2022-12-20T10:54:23;44.42;;;24.20;;
24715;SDS011;12822;50.124;8.678;2022-12-20T10:56:54;44.50;;;23.67;;
24715;SDS011;12822;50.124;8.678;2022-12-20T11:01:47;51.03;;;25.48;;
24715;SDS011;12822;50.124;8.678;2022-12-20T11:06:54;47.08;;;23.83;;
24715;SDS011;12822;50.124;8.678;2022-12-20T11:09:30;54.40;;;24.75;;
24715;SDS011;12822;50.124;8.678;2022-12-20T11:14:30;43.80;;;24.45;;
24715;SDS011;12822;50.124;8.678;2022-12-20T11:16:56;49.42;;;23.55;;
24715;SDS011;12822;50.124;8.678;2022-12-20T11:32:21;46.47;;;22.70;;
24715;SDS011;12822;50.124;8.678;2022-12-20T11:37:18;49.25;;;23.23;;
24715;SDS011;12822;50.124;8.678;2022-12-20T11:45:20;43.83;;;24.10;;
24715;SDS011;12822;50.124;8.678;2022-12-20T11:47:58;45.67;;;22.48;;
24715;SDS011;12822;50.124;8.678;2022-12-20T11:52:55;56.15;;;24.33;;
24715;SDS011;12822;50.124;8.678;2022-12-20T11:57:59;41.97;;;24.13;;
24715;SDS011;12822;50.124;8.678;2022-12-20T12:00:28;48.88;;;24.48;;
24715;SDS011;12822;50.124;8.678;2022-12-20T12:05:25;37.92;;;21.85;;
24715;SDS011;12822;50.124;8.678;2022-12-20T12:07:55;43.70;;;23.92;;
24715;SDS011;12822;50.124;8.678;2022-12-20T12:10:23;48.95;;;23.90;;
24715;SDS011;12822;50.124;8.678;2022-12-20T12:15:39;46.65;;;24.02;;
24715;SDS011;12822;50.124;8.678;2022-12-20T12:18:23;45.05;;;23.10;;
24715;SDS011;12822;50.124;8.678;2022-12-20T12:25:48;44.40;;;23.10;;
24715;SDS011;12822;50.124;8.678;2022-12-20T12:28:14;40.95;;;22.70;;
24715;SDS011;12822;50.124;8.678;2022-12-20T12:30:43;48.35;;;24.33;;
24715;SDS011;12822;50.124;8.678;2022-12-20T12:33:13;45.25;;;24.02;;
24715;SDS011;12822;50.124;8.678;2022-12-20T12:46:59;43.97;;;22.83;;
24715;SDS011;12822;50.124;8.678;2022-12-20T12:49:26;43.92;;;23.20;;
24715;SDS011;12822;50.124;8.678;2022-12-20T12:51:54;43.15;;;23.30;;
24715;SDS011;12822;50.124;8.678;2022-12-20T12:54:29;43.88;;;22.85;;
24715;SDS011;12822;50.124;8.678;2022-12-20T12:57:00;38.08;;;22.60;;
24715;SDS011;12822;50.124;8.678;2022-12-20T13:01:54;47.15;;;24.25;;
24715;SDS011;12822;50.124;8.678;2022-12-20T13:04:27;41.25;;;23.58;;
24715;SDS011;12822;50.124;8.678;2022-12-20T13:06:55;46.88;;;25.23;;
24715;SDS011;12822;50.124;8.678;2022-12-20T13:11:52;38.35;;;22.35;;
24715;SDS011;12822;50.124;8.678;2022-12-20T13:16:54;42.03;;;22.67;;
24715;SDS011;12822;50.124;8.678;2022-12-20T13:19:39;39.15;;;22.15;;
24715;SDS011;12822;50.124;8.678;2022-12-20T13:35:10;36.45;;;21.67;;
24715;SDS011;12822;50.124;8.678;2022-12-20T13:38:08;45.25;;;23.63;;
24715;SDS011;12822;50.124;8.678;2022-12-20T13:40:55;42.72;;;23.92;;
24715;SDS011;12822;50.124;8.678;2022-12-20T13:45:56;42.42;;;22.95;;
24715;SDS011;12822;50.124;8.678;2022-12-20T13:48:29;36.40;;;21.77;;
24715;SDS011;12822;50.124;8.678;2022-12-20T13:50:56;42.53;;;22.48;;
24715;SDS011;12822;50.124;8.678;2022-12-20T13:53:23;41.65;;;23.27;;
24715;SDS011;12822;50.124;8.678;2022-12-20T13:55:51;36.72;;;21.85;;
24715;SDS011;12822;50.124;8.678;2022-12-20T13:58:18;43.10;;;23.00;;
24715;SDS011;12822;50.124;8.678;2022-12-20T14:00:45;40.13;;;22.23;;
24715;SDS011;12822;50.124;8.678;2022-12-20T14:03:22;36.97;;;22.17;;
24715;SDS011;12822;50.124;8.678;2022-12-20T14:05:48;37.67;;;22.58;;
24715;SDS011;12822;50.124;8.678;2022-12-20T14:08:18;39.08;;;21.73;;
24715;SDS011;12822;50.124;8.678;2022-12-20T14:10:45;48.53;;;23.27;;
24715;SDS011;12822;50.124;8.678;2022-12-20T14:13:49;39.80;;;22.58;;
24715;SDS011;12822;50.124;8.678;2022-12-20T14:16:12;40.28;;;22.30;;
24715;SDS011;12822;50.124;8.678;2022-12-20T14:18:39;40.47;;;23.95;;
24715;SDS011;12822;50.124;8.678;2022-12-20T14:21:08;41.30;;;23.02;;
24715;SDS011;12822;50.124;8.678;2022-12-20T14:23:38;41.72;;;23.15;;
24715;SDS011;12822;50.124;8.678;2022-12-20T14:26:14;45.30;;;23.73;;
24715;SDS011;12822;50.124;8.678;2022-12-20T14:28:42;36.13;;;21.27;;
24715;SDS011;12822;50.124;8.678;2022-12-20T14:31:25;47.22;;;22.67;;
24715;SDS011;12822;50.124;8.678;2022-12-20T14:36:30;45.40;;;24.33;;
24715;SDS011;12822;50.124;8.678;2022-12-20T14:38:57;41.40;;;23.83;;
24715;SDS011;12822;50.124;8.678;2022-12-20T14:41:34;43.30;;;23.88;;
24715;SDS011;12822;50.124;8.678;2022-12-20T14:46:33;44.05;;;24.15;;
24715;SDS011;12822;50.124;8.678;2022-12-20T14:51:41;45.38;;;25.45;;
24715;SDS011;12822;50.124;8.678;2022-12-20T14:54:14;39.50;;;23.98;;
24715;SDS011;12822;50.124;8.678;2022-12-20T14:56:43;40.95;;;22.95;;
24715;SDS011;12822;50.124;8.678;2022-12-20T14:59:13;38.20;;;23.10;;
24715;SDS011;12822;50.124;8.678;2022-12-20T15:01:39;42.72;;;22.02;;
24715;SDS011;12822;50.124;8.678;2022-12-20T15:04:19;40.60;;;23.55;;
24715;SDS011;12822;50.124;8.678;2022-12-20T15:06:46;38.17;;;22.63;;
24715;SDS011;12822;50.124;8.678;2022-12-20T15:09:13;35.95;;;22.60;;
24715;SDS011;12822;50.124;8.678;2022-12-20T15:11:40;39.28;;;21.30;;
24715;SDS011;12822;50.124;8.678;2022-12-20T15:14:20;42.33;;;23.02;;
24715;SDS011;12822;50.124;8.678;2022-12-20T15:16:47;40.20;;;24.15;;
24715;SDS011;12822;50.124;8.678;2022-12-20T15:19:13;40.15;;;23.13;;
24715;SDS011;12822;50.124;8.678;2022-12-20T15:21:40;42.58;;;23.10;;
24715;SDS011;12822;50.124;8.678;2022-12-20T15:24:14;42.22;;;22.98;;
24715;SDS011;12822;50.124;8.678;2022-12-20T15:26:41;40.92;;;23.30;;
24715;SDS011;12822;50.124;8.678;2022-12-20T15:29:17;43.33;;;23.02;;
24715;SDS011;12822;50.124;8.678;2022-12-20T15:31:57;43.42;;;23.27;;
24715;SDS011;12822;50.124;8.678;2022-12-20T15:34:36;40.92;;;22.05;;
24715;SDS011;12822;50.124;8.678;2022-12-20T15:37:02;39.33;;;22.90;;
24715;SDS011;12822;50.124;8.678;2022-12-20T15:39:29;40.17;;;22.17;;
24715;SDS011;12822;50.124;8.678;2022-12-20T15:41:56;39.15;;;22.67;;
24715;SDS011;12822;50.124;8.678;2022-12-20T15:44:23;42.03;;;23.13;;
24715;SDS011;12822;50.124;8.678;2022-12-20T15:46:50;38.55;;;24.02;;
24715;SDS011;12822;50.124;8.678;2022-12-20T15:49:17;42.50;;;23.55;;
24715;SDS011;12822;50.124;8.678;2022-12-20T15:51:45;40.58;;;22.98;;
24715;SDS011;12822;50.124;8.678;2022-12-20T15:56:48;44.20;;;24.50;;
24715;SDS011;12822;50.124;8.678;2022-12-20T15:59:14;43.38;;;24.80;;
24715;SDS011;12822;50.124;8.678;2022-12-20T16:01:40;40.42;;;24.15;;
24715;SDS011;12822;50.124;8.678;2022-12-20T16:04:07;44.38;;;25.13;;
24715;SDS011;12822;50.124;8.678;2022-12-20T16:06:33;46.58;;;25.80;;
24715;SDS011;12822;50.124;8.678;2022-12-20T16:08:59;44.55;;;25.50;;
24715;SDS011;12822;50.124;8.678;2022-12-20T16:11:26;45.38;;;24.58;;
24715;SDS011;12822;50.124;8.678;2022-12-20T16:13:53;41.53;;;26.00;;
24715;SDS011;12822;50.124;8.678;2022-12-20T16:16:20;42.15;;;25.27;;
24715;SDS011;12822;50.124;8.678;2022-12-20T16:18:47;46.47;;;26.33;;
24715;SDS011;12822;50.124;8.678;2022-12-20T16:21:14;43.75;;;25.52;;
24715;SDS011;12822;50.124;8.678;2022-12-20T16:23:41;48.58;;;26.15;;
24715;SDS011;12822;50.124;8.678;2022-12-20T16:26:17;42.28;;;24.70;;
24715;SDS011;12822;50.124;8.678;2022-12-20T16:28:44;45.35;;;26.33;;
24715;SDS011;12822;50.124;8.678;2022-12-20T16:31:16;44.97;;;25.70;;
24715;SDS011;12822;50.124;8.678;2022-12-20T16:33:46;42.83;;;25.40;;
24715;SDS011;12822;50.124;8.678;2022-12-20T16:36:13;45.05;;;25.50;;
24715;SDS011;12822;50.124;8.678;2022-12-20T16:38:39;47.47;;;25.40;;